sensor_id;sensor_type;location;lat;lon;timestamp;pressure;altitude;pressure_sealevel;temperature;humidity
2178;BME280;1095;50.992;6.798;2023-02-15T00:00:08;102224.97;;;1.53;100.00
2178;BME280;1095;50.992;6.798;2023-02-15T00:02:35;102224.19;;;1.51;100.00
2178;BME280;1095;50.992;6.798;2023-02-15T00:05:02;102203.38;;;1.34;100.00
2178;BME280;1095;50.992;6.798;2023-02-15T00:07:30;102219.38;;;1.42;100.00
2178;BME280;1095;50.992;6.798;2023-02-15T00:09:56;102215.91;;;1.43;100.00
2178;BME280;1095;50.992;6.798;2023-02-15T00:12:23;102210.91;;;1.40;100.00
2178;BME280;1095;50.992;6.798;2023-02-15T00:14:50;102216.06;;;1.40;100.00
2178;BME280;1095;50.992;6.798;2023-02-15T00:17:16;102214.31;;;1.41;100.00
2178;BME280;1095;50.992;6.798;2023-02-15T00:19:43;102202.50;;;1.35;100.00
2178;BME280;1095;50.992;6.798;2023-02-15T00:22:10;102205.91;;;1.36;100.00
2178;BME280;1095;50.992;6.798;2023-02-15T00:24:38;102207.75;;;1.32;100.00
2178;BME280;1095;50.992;6.798;2023-02-15T00:27:04;102210.28;;;1.33;100.00
2178;BME280;1095;50.992;6.798;2023-02-15T00:29:31;102202.72;;;1.29;100.00
2178;BME280;1095;50.992;6.798;2023-02-15T00:31:58;102211.34;;;1.28;100.00
2178;BME280;1095;50.992;6.798;2023-02-15T00:34:27;102198.47;;;1.28;100.00
2178;BME280;1095;50.992;6.798;2023-02-15T00:36:54;102199.47;;;1.24;100.00
2178;BME280;1095;50.992;6.798;2023-02-15T00:39:20;102203.78;;;1.23;100.00
2178;BME280;1095;50.992;6.798;2023-02-15T00:41:50;102202.09;;;1.22;100.00
2178;BME280;1095;50.992;6.798;2023-02-15T00:44:17;102194.59;;;1.16;100.00
2178;BME280;1095;50.992;6.798;2023-02-15T00:46:43;102203.72;;;1.25;100.00
2178;BME280;1095;50.992;6.798;2023-02-15T00:49:10;102204.75;;;1.21;100.00
2178;BME280;1095;50.992;6.798;2023-02-15T00:51:37;102195.38;;;1.18;100.00
2178;BME280;1095;50.992;6.798;2023-02-15T00:54:04;102205.03;;;1.13;100.00
2178;BME280;1095;50.992;6.798;2023-02-15T00:56:31;102203.28;;;1.14;100.00
2178;BME280;1095;50.992;6.798;2023-02-15T00:58:59;102194.88;;;1.09;100.00
2178;BME280;1095;50.992;6.798;2023-02-15T01:01:25;102189.63;;;1.12;100.00
2178;BME280;1095;50.992;6.798;2023-02-15T01:03:52;102200.75;;;1.12;100.00
2178;BME280;1095;50.992;6.798;2023-02-15T01:06:19;102204.19;;;1.13;100.00
2178;BME280;1095;50.992;6.798;2023-02-15T01:08:46;102197.56;;;1.06;100.00
2178;BME280;1095;50.992;6.798;2023-02-15T01:11:14;102194.94;;;1.07;100.00
2178;BME280;1095;50.992;6.798;2023-02-15T01:13:48;102193.38;;;1.03;100.00
2178;BME280;1095;50.992;6.798;2023-02-15T01:16:18;102195.22;;;0.99;100.00
2178;BME280;1095;50.992;6.798;2023-02-15T01:18:45;102196.16;;;0.97;100.00
2178;BME280;1095;50.992;6.798;2023-02-15T01:21:13;102198.81;;;0.95;100.00
2178;BME280;1095;50.992;6.798;2023-02-15T01:23:40;102192.94;;;0.92;100.00
2178;BME280;1095;50.992;6.798;2023-02-15T01:26:08;102191.06;;;0.95;100.00
2178;BME280;1095;50.992;6.798;2023-02-15T01:28:35;102196.41;;;0.91;100.00
2178;BME280;1095;50.992;6.798;2023-02-15T01:31:05;102201.56;;;0.91;100.00
2178;BME280;1095;50.992;6.798;2023-02-15T01:33:34;102199.94;;;0.88;100.00
2178;BME280;1095;50.992;6.798;2023-02-15T01:36:01;102194.06;;;0.85;100.00
2178;BME280;1095;50.992;6.798;2023-02-15T01:38:29;102191.44;;;0.86;100.00
2178;BME280;1095;50.992;6.798;2023-02-15T01:40:55;102186.34;;;0.85;100.00
2178;BME280;1095;50.992;6.798;2023-02-15T01:43:45;102184.53;;;0.87;100.00
2178;BME280;1095;50.992;6.798;2023-02-15T01:46:14;102185.50;;;0.84;100.00
2178;BME280;1095;50.992;6.798;2023-02-15T01:48:45;102185.72;;;0.78;100.00
2178;BME280;1095;50.992;6.798;2023-02-15T01:51:14;102183.81;;;0.83;100.00
2178;BME280;1095;50.992;6.798;2023-02-15T01:53:48;102171.81;;;0.82;100.00
2178;BME280;1095;50.992;6.798;2023-02-15T01:56:19;102177.88;;;0.81;100.00
2178;BME280;1095;50.992;6.798;2023-02-15T01:58:49;102178.75;;;0.80;100.00
2178;BME280;1095;50.992;6.798;2023-02-15T02:01:18;102171.94;;;0.79;100.00
2178;BME280;1095;50.992;6.798;2023-02-15T02:03:53;102175.41;;;0.78;100.00
2178;BME280;1095;50.992;6.798;2023-02-15T02:06:23;102161.84;;;0.73;100.00
2178;BME280;1095;50.992;6.798;2023-02-15T02:08:50;102174.72;;;0.73;100.00
2178;BME280;1095;50.992;6.798;2023-02-15T02:11:18;102161.84;;;0.73;100.00
2178;BME280;1095;50.992;6.798;2023-02-15T02:13:45;102156.69;;;0.73;100.00
2178;BME280;1095;50.992;6.798;2023-02-15T02:16:17;102158.47;;;0.71;100.00
2178;BME280;1095;50.992;6.798;2023-02-15T02:18:54;102149.97;;;0.69;100.00
2178;BME280;1095;50.992;6.798;2023-02-15T02:21:42;102143.19;;;0.66;100.00
2178;BME280;1095;50.992;6.798;2023-02-15T02:24:27;102152.72;;;0.64;100.00
2178;BME280;1095;50.992;6.798;2023-02-15T02:27:18;102151.81;;;0.65;100.00
2178;BME280;1095;50.992;6.798;2023-02-15T02:30:02;102141.63;;;0.62;100.00
2178;BME280;1095;50.992;6.798;2023-02-15T02:35:43;102143.47;;;0.59;100.00
2178;BME280;1095;50.992;6.798;2023-02-15T02:38:17;102131.47;;;0.58;100.00
2178;BME280;1095;50.992;6.798;2023-02-15T02:40:54;102127.28;;;0.55;100.00
2178;BME280;1095;50.992;6.798;2023-02-15T02:43:27;102122.13;;;0.55;100.00
2178;BME280;1095;50.992;6.798;2023-02-15T02:46:02;102122.13;;;0.55;100.00
2178;BME280;1095;50.992;6.798;2023-02-15T02:48:33;102126.59;;;0.50;100.00
2178;BME280;1095;50.992;6.798;2023-02-15T02:51:01;102120.66;;;0.48;100.00
2178;BME280;1095;50.992;6.798;2023-02-15T02:53:30;102119.72;;;0.51;100.00
2178;BME280;1095;50.992;6.798;2023-02-15T02:55:59;102113.00;;;0.47;100.00
2178;BME280;1095;50.992;6.798;2023-02-15T02:58:32;102119.97;;;0.45;100.00
2178;BME280;1095;50.992;6.798;2023-02-15T03:01:07;102121.75;;;0.43;100.00
2178;BME280;1095;50.992;6.798;2023-02-15T03:03:37;102108.97;;;0.40;100.00
2178;BME280;1095;50.992;6.798;2023-02-15T03:06:09;102109.72;;;0.43;100.00
2178;BME280;1095;50.992;6.798;2023-02-15T03:08:39;102113.13;;;0.44;100.00
2178;BME280;1095;50.992;6.798;2023-02-15T03:11:07;102109.75;;;0.42;100.00
2178;BME280;1095;50.992;6.798;2023-02-15T03:13:35;102101.34;;;0.37;100.00
2178;BME280;1095;50.992;6.798;2023-02-15T03:16:04;102108.28;;;0.35;100.00
2178;BME280;1095;50.992;6.798;2023-02-15T03:18:52;102100.69;;;0.31;100.00
2178;BME280;1095;50.992;6.798;2023-02-15T03:21:24;102097.22;;;0.32;100.00
2178;BME280;1095;50.992;6.798;2023-02-15T03:23:54;102099.00;;;0.30;100.00
2178;BME280;1095;50.992;6.798;2023-02-15T03:26:24;102099.06;;;0.29;100.00
2178;BME280;1095;50.992;6.798;2023-02-15T03:28:53;102095.63;;;0.28;100.00
2178;BME280;1095;50.992;6.798;2023-02-15T03:31:25;102106.72;;;0.30;100.00
2178;BME280;1095;50.992;6.798;2023-02-15T03:33:55;102099.00;;;0.30;100.00
2178;BME280;1095;50.992;6.798;2023-02-15T03:36:30;102102.69;;;0.23;100.00
2178;BME280;1095;50.992;6.798;2023-02-15T03:39:12;102104.38;;;0.24;100.00
2178;BME280;1095;50.992;6.798;2023-02-15T03:41:47;102103.56;;;0.22;100.00
2178;BME280;1095;50.992;6.798;2023-02-15T03:44:19;102108.84;;;0.19;100.00
2178;BME280;1095;50.992;6.798;2023-02-15T03:46:54;102094.59;;;0.09;100.00
2178;BME280;1095;50.992;6.798;2023-02-15T03:49:56;102081.16;;;0.01;100.00
2178;BME280;1095;50.992;6.798;2023-02-15T03:52:55;102100.47;;;0.13;100.00
2178;BME280;1095;50.992;6.798;2023-02-15T03:55:42;102106.63;;;0.09;100.00
2178;BME280;1095;50.992;6.798;2023-02-15T03:58:20;102094.94;;;0.00;100.00
2178;BME280;1095;50.992;6.798;2023-02-15T04:01:22;102084.75;;;-0.03;100.00
2178;BME280;1095;50.992;6.798;2023-02-15T04:04:13;102103.31;;;0.05;100.00
2178;BME280;1095;50.992;6.798;2023-02-15T04:06:42;102094.00;;;0.01;100.00
2178;BME280;1095;50.992;6.798;2023-02-15T04:09:14;102097.44;;;0.02;100.00
2178;BME280;1095;50.992;6.798;2023-02-15T04:11:55;102102.66;;;0.00;100.00
2178;BME280;1095;50.992;6.798;2023-02-15T04:14:21;102100.91;;;0.00;100.00
2178;BME280;1095;50.992;6.798;2023-02-15T04:17:05;102096.78;;;-0.04;100.00
2178;BME280;1095;50.992;6.798;2023-02-15T04:19:32;102100.97;;;-0.01;100.00
2178;BME280;1095;50.992;6.798;2023-02-15T04:22:16;102094.16;;;-0.02;100.00
2178;BME280;1095;50.992;6.798;2023-02-15T04:25:02;102095.00;;;-0.02;100.00
2178;BME280;1095;50.992;6.798;2023-02-15T04:27:38;102093.31;;;-0.03;100.00
2178;BME280;1095;50.992;6.798;2023-02-15T04:30:06;102100.25;;;-0.05;100.00
2178;BME280;1095;50.992;6.798;2023-02-15T04:32:33;102099.41;;;-0.05;100.00
2178;BME280;1095;50.992;6.798;2023-02-15T04:35:00;102094.41;;;-0.10;100.00
2178;BME280;1095;50.992;6.798;2023-02-15T04:37:27;102084.25;;;-0.14;100.00
2178;BME280;1095;50.992;6.798;2023-02-15T04:39:53;102094.34;;;-0.08;100.00
2178;BME280;1095;50.992;6.798;2023-02-15T04:42:21;102080.06;;;-0.17;100.00
2178;BME280;1095;50.992;6.798;2023-02-15T04:44:48;102073.19;;;-0.16;100.00
2178;BME280;1095;50.992;6.798;2023-02-15T04:47:15;102088.47;;;-0.12;100.00
2178;BME280;1095;50.992;6.798;2023-02-15T04:49:41;102085.94;;;-0.13;100.00
2178;BME280;1095;50.992;6.798;2023-02-15T04:52:08;102090.41;;;-0.18;100.00
2178;BME280;1095;50.992;6.798;2023-02-15T04:54:35;102098.03;;;-0.15;100.00
2178;BME280;1095;50.992;6.798;2023-02-15T04:57:03;102084.47;;;-0.20;100.00
2178;BME280;1095;50.992;6.798;2023-02-15T04:59:31;102083.69;;;-0.22;100.00
2178;BME280;1095;50.992;6.798;2023-02-15T05:01:58;102086.09;;;-0.18;100.00
2178;BME280;1095;50.992;6.798;2023-02-15T05:04:24;102079.13;;;-0.14;100.00
2178;BME280;1095;50.992;6.798;2023-02-15T05:06:51;102080.06;;;-0.17;100.00
2178;BME280;1095;50.992;6.798;2023-02-15T05:09:18;102077.53;;;-0.18;100.00
2178;BME280;1095;50.992;6.798;2023-02-15T05:11:44;102072.69;;;-0.27;100.00
2178;BME280;1095;50.992;6.798;2023-02-15T05:14:11;102077.53;;;-0.18;100.00
2178;BME280;1095;50.992;6.798;2023-02-15T05:16:39;102082.69;;;-0.18;100.00
2178;BME280;1095;50.992;6.798;2023-02-15T05:19:06;102070.91;;;-0.25;100.00
2178;BME280;1095;50.992;6.798;2023-02-15T05:21:33;102082.84;;;-0.23;100.00
2178;BME280;1095;50.992;6.798;2023-02-15T05:23:59;102068.94;;;-0.17;100.00
2178;BME280;1095;50.992;6.798;2023-02-15T05:26:46;102069.78;;;-0.17;100.00
2178;BME280;1095;50.992;6.798;2023-02-15T05:29:31;102070.63;;;-0.16;100.00
2178;BME280;1095;50.992;6.798;2023-02-15T05:31:59;102077.44;;;-0.15;100.00
2178;BME280;1095;50.992;6.798;2023-02-15T05:34:25;102069.03;;;-0.20;100.00
2178;BME280;1095;50.992;6.798;2023-02-15T05:36:52;102080.00;;;-0.15;100.00
2178;BME280;1095;50.992;6.798;2023-02-15T05:39:19;102073.97;;;-0.14;100.00
2178;BME280;1095;50.992;6.798;2023-02-15T05:41:45;102073.97;;;-0.14;100.00
2178;BME280;1095;50.992;6.798;2023-02-15T05:44:12;102062.94;;;-0.18;100.00
2178;BME280;1095;50.992;6.798;2023-02-15T05:46:38;102065.63;;;-0.21;100.00
2178;BME280;1095;50.992;6.798;2023-02-15T05:49:06;102056.47;;;-0.29;100.00
2178;BME280;1095;50.992;6.798;2023-02-15T05:51:33;102077.53;;;-0.18;100.00
2178;BME280;1095;50.992;6.798;2023-02-15T05:54:00;102069.88;;;-0.20;100.00
2178;BME280;1095;50.992;6.798;2023-02-15T05:56:27;102074.97;;;-0.18;100.00
2178;BME280;1095;50.992;6.798;2023-02-15T05:58:53;102069.25;;;-0.26;100.00
2178;BME280;1095;50.992;6.798;2023-02-15T06:01:20;102062.94;;;-0.18;100.00
2178;BME280;1095;50.992;6.798;2023-02-15T06:03:48;102063.00;;;-0.19;100.00
2178;BME280;1095;50.992;6.798;2023-02-15T06:06:16;102065.56;;;-0.19;100.00
2178;BME280;1095;50.992;6.798;2023-02-15T06:08:43;102068.25;;;-0.22;100.00
2178;BME280;1095;50.992;6.798;2023-02-15T06:11:10;102067.34;;;-0.21;100.00
2178;BME280;1095;50.992;6.798;2023-02-15T06:13:37;102057.47;;;-0.34;100.00
2178;BME280;1095;50.992;6.798;2023-02-15T06:16:03;102064.00;;;-0.23;100.00
2178;BME280;1095;50.992;6.798;2023-02-15T06:18:30;102070.72;;;-0.19;100.00
2178;BME280;1095;50.992;6.798;2023-02-15T06:20:57;102074.28;;;-0.23;100.00
2178;BME280;1095;50.992;6.798;2023-02-15T06:23:25;102075.13;;;-0.23;100.00
2178;BME280;1095;50.992;6.798;2023-02-15T06:25:51;102073.50;;;-0.25;100.00
2178;BME280;1095;50.992;6.798;2023-02-15T06:28:18;102076.16;;;-0.28;100.00
2178;BME280;1095;50.992;6.798;2023-02-15T06:30:44;102077.84;;;-0.27;100.00
2178;BME280;1095;50.992;6.798;2023-02-15T06:33:11;102082.34;;;-0.34;100.00
2178;BME280;1095;50.992;6.798;2023-02-15T06:35:38;102087.41;;;-0.31;100.00
2178;BME280;1095;50.992;6.798;2023-02-15T06:38:04;102084.88;;;-0.32;100.00
2178;BME280;1095;50.992;6.798;2023-02-15T06:40:32;102089.13;;;-0.31;100.00
2178;BME280;1095;50.992;6.798;2023-02-15T06:42:59;102095.16;;;-0.32;100.00
2178;BME280;1095;50.992;6.798;2023-02-15T06:45:26;102076.38;;;-0.35;100.00
2178;BME280;1095;50.992;6.798;2023-02-15T06:47:53;102083.09;;;-0.30;100.00
2178;BME280;1095;50.992;6.798;2023-02-15T06:50:20;102089.91;;;-0.29;100.00
2178;BME280;1095;50.992;6.798;2023-02-15T06:52:46;102079.44;;;-0.23;100.00
2178;BME280;1095;50.992;6.798;2023-02-15T06:55:16;102081.94;;;-0.22;100.00
2178;BME280;1095;50.992;6.798;2023-02-15T06:57:44;102084.56;;;-0.23;100.00
2178;BME280;1095;50.992;6.798;2023-02-15T07:00:14;102077.66;;;-0.21;100.00
2178;BME280;1095;50.992;6.798;2023-02-15T07:02:45;102076.69;;;-0.19;100.00
2178;BME280;1095;50.992;6.798;2023-02-15T07:05:12;102077.53;;;-0.18;100.00
2178;BME280;1095;50.992;6.798;2023-02-15T07:07:39;102076.75;;;-0.20;100.00
2178;BME280;1095;50.992;6.798;2023-02-15T07:10:06;102074.19;;;-0.20;100.00
2178;BME280;1095;50.992;6.798;2023-02-15T07:12:33;102071.56;;;-0.19;100.00
2178;BME280;1095;50.992;6.798;2023-02-15T07:15:12;102082.28;;;-0.06;100.00
2178;BME280;1095;50.992;6.798;2023-02-15T07:17:39;102081.34;;;-0.04;100.00
2178;BME280;1095;50.992;6.798;2023-02-15T07:20:08;102079.09;;;0.11;100.00
2178;BME280;1095;50.992;6.798;2023-02-15T07:22:35;102082.44;;;0.38;100.00
2178;BME280;1095;50.992;6.798;2023-02-15T07:25:02;102067.97;;;0.57;100.00
2178;BME280;1095;50.992;6.798;2023-02-15T07:27:30;102059.00;;;0.67;100.00
2178;BME280;1095;50.992;6.798;2023-02-15T07:29:57;102059.41;;;0.80;100.00
2178;BME280;1095;50.992;6.798;2023-02-15T07:32:28;102052.19;;;1.10;100.00
2178;BME280;1095;50.992;6.798;2023-02-15T07:34:56;102054.59;;;1.14;100.00
2178;BME280;1095;50.992;6.798;2023-02-15T07:37:23;102042.34;;;1.19;100.00
2178;BME280;1095;50.992;6.798;2023-02-15T07:39:49;102036.00;;;1.28;100.00
2178;BME280;1095;50.992;6.798;2023-02-15T07:42:16;102027.59;;;1.23;100.00
2178;BME280;1095;50.992;6.798;2023-02-15T07:44:43;102031.31;;;1.16;100.00
2178;BME280;1095;50.992;6.798;2023-02-15T07:47:09;102021.13;;;1.13;100.00
2178;BME280;1095;50.992;6.798;2023-02-15T07:49:38;102022.97;;;1.31;100.00
2178;BME280;1095;50.992;6.798;2023-02-15T07:52:05;102015.78;;;1.39;100.00
2178;BME280;1095;50.992;6.798;2023-02-15T07:54:32;102008.66;;;1.64;100.00
2178;BME280;1095;50.992;6.798;2023-02-15T07:57:00;102014.03;;;1.60;100.00
2178;BME280;1095;50.992;6.798;2023-02-15T07:59:26;102012.53;;;1.75;100.00
2178;BME280;1095;50.992;6.798;2023-02-15T08:01:53;102016.28;;;1.88;100.00
2178;BME280;1095;50.992;6.798;2023-02-15T08:04:21;102013.91;;;2.02;100.00
2178;BME280;1095;50.992;6.798;2023-02-15T08:06:52;102007.25;;;1.96;100.00
2178;BME280;1095;50.992;6.798;2023-02-15T08:09:19;102005.13;;;2.06;100.00
2178;BME280;1095;50.992;6.798;2023-02-15T08:11:46;102001.91;;;2.01;100.00
2178;BME280;1095;50.992;6.798;2023-02-15T08:14:15;101994.31;;;2.17;100.00
2178;BME280;1095;50.992;6.798;2023-02-15T08:16:44;102008.22;;;2.52;100.00
2178;BME280;1095;50.992;6.798;2023-02-15T08:19:12;102009.41;;;2.45;99.73
2178;BME280;1095;50.992;6.798;2023-02-15T08:21:40;102001.72;;;2.43;98.85
2178;BME280;1095;50.992;6.798;2023-02-15T08:24:10;102000.41;;;2.35;99.12
2178;BME280;1095;50.992;6.798;2023-02-15T08:26:37;101995.34;;;2.50;98.45
2178;BME280;1095;50.992;6.798;2023-02-15T08:29:05;101993.53;;;2.71;97.64
2178;BME280;1095;50.992;6.798;2023-02-15T08:31:33;101999.53;;;2.53;97.15
2178;BME280;1095;50.992;6.798;2023-02-15T08:34:00;101996.97;;;2.53;97.42
2178;BME280;1095;50.992;6.798;2023-02-15T08:36:29;101992.13;;;2.64;97.21
2178;BME280;1095;50.992;6.798;2023-02-15T08:38:58;101981.50;;;2.70;96.43
2178;BME280;1095;50.992;6.798;2023-02-15T08:41:27;101987.59;;;2.86;96.19
2178;BME280;1095;50.992;6.798;2023-02-15T08:43:56;101988.84;;;2.79;95.69
2178;BME280;1095;50.992;6.798;2023-02-15T08:46:25;101981.72;;;3.02;95.46
2178;BME280;1095;50.992;6.798;2023-02-15T08:48:52;101981.38;;;2.90;94.80
2178;BME280;1095;50.992;6.798;2023-02-15T08:51:20;101975.16;;;2.94;95.45
2178;BME280;1095;50.992;6.798;2023-02-15T08:53:50;101982.44;;;2.86;94.89
2178;BME280;1095;50.992;6.798;2023-02-15T08:56:18;101974.53;;;2.89;95.28
2178;BME280;1095;50.992;6.798;2023-02-15T08:58:46;101976.28;;;2.89;95.00
2178;BME280;1095;50.992;6.798;2023-02-15T09:01:15;101976.59;;;2.83;95.36
2178;BME280;1095;50.992;6.798;2023-02-15T09:03:46;101981.09;;;2.96;95.57
2178;BME280;1095;50.992;6.798;2023-02-15T09:06:13;101984.06;;;3.06;95.27
2178;BME280;1095;50.992;6.798;2023-02-15T09:08:40;101992.88;;;3.02;94.72
2178;BME280;1095;50.992;6.798;2023-02-15T09:11:09;101982.31;;;3.07;94.56
2178;BME280;1095;50.992;6.798;2023-02-15T09:13:36;101984.91;;;3.07;94.72
2178;BME280;1095;50.992;6.798;2023-02-15T09:16:07;101984.31;;;3.19;94.54
2178;BME280;1095;50.992;6.798;2023-02-15T09:18:35;101980.81;;;3.20;94.15
2178;BME280;1095;50.992;6.798;2023-02-15T09:21:11;101984.03;;;3.25;93.76
2178;BME280;1095;50.992;6.798;2023-02-15T09:23:39;101988.72;;;3.34;94.05
2178;BME280;1095;50.992;6.798;2023-02-15T09:26:07;101975.47;;;3.57;93.17
2178;BME280;1095;50.992;6.798;2023-02-15T09:28:34;101977.38;;;3.87;93.07
2178;BME280;1095;50.992;6.798;2023-02-15T09:31:10;101976.94;;;4.12;92.58
2178;BME280;1095;50.992;6.798;2023-02-15T09:33:38;101976.34;;;3.74;92.06
2178;BME280;1095;50.992;6.798;2023-02-15T09:36:12;101978.88;;;3.75;91.63
2178;BME280;1095;50.992;6.798;2023-02-15T09:38:39;101983.63;;;3.83;92.17
2178;BME280;1095;50.992;6.798;2023-02-15T09:44:03;101978.69;;;3.78;91.15
2178;BME280;1095;50.992;6.798;2023-02-15T09:46:57;101974.84;;;3.85;91.81
2178;BME280;1095;50.992;6.798;2023-02-15T09:49:38;101981.41;;;3.92;91.09
2178;BME280;1095;50.992;6.798;2023-02-15T09:55:20;101984.63;;;4.13;90.57
2178;BME280;1095;50.992;6.798;2023-02-15T09:57:58;101980.13;;;4.17;90.14
2178;BME280;1095;50.992;6.798;2023-02-15T10:00:31;101983.53;;;4.17;89.66
2178;BME280;1095;50.992;6.798;2023-02-15T10:03:20;101985.97;;;4.20;90.34
2178;BME280;1095;50.992;6.798;2023-02-15T10:06:02;101980.63;;;4.39;89.80
2178;BME280;1095;50.992;6.798;2023-02-15T10:08:49;101979.28;;;4.63;89.52
2178;BME280;1095;50.992;6.798;2023-02-15T10:11:24;101977.28;;;4.69;88.91
2178;BME280;1095;50.992;6.798;2023-02-15T10:14:16;101978.94;;;4.70;88.56
2178;BME280;1095;50.992;6.798;2023-02-15T10:16:52;101979.03;;;4.68;87.91
2178;BME280;1095;50.992;6.798;2023-02-15T10:19:32;101975.72;;;4.80;87.97
2178;BME280;1095;50.992;6.798;2023-02-15T10:22:11;101973.88;;;4.98;88.00
2178;BME280;1095;50.992;6.798;2023-02-15T10:24:52;101972.69;;;5.04;87.04
2178;BME280;1095;50.992;6.798;2023-02-15T10:27:28;101971.06;;;5.31;86.93
2178;BME280;1095;50.992;6.798;2023-02-15T10:30:04;101972.44;;;5.22;86.39
2178;BME280;1095;50.992;6.798;2023-02-15T10:32:39;101974.25;;;5.36;85.93
2178;BME280;1095;50.992;6.798;2023-02-15T10:35:17;101968.69;;;5.42;85.64
2178;BME280;1095;50.992;6.798;2023-02-15T10:37:56;101957.94;;;5.48;85.32
2178;BME280;1095;50.992;6.798;2023-02-15T10:40:33;101966.31;;;5.53;85.19
2178;BME280;1095;50.992;6.798;2023-02-15T10:43:13;101964.00;;;5.63;85.11
2178;BME280;1095;50.992;6.798;2023-02-15T10:45:51;101963.81;;;5.80;85.01
2178;BME280;1095;50.992;6.798;2023-02-15T10:48:29;101949.97;;;5.80;84.44
2178;BME280;1095;50.992;6.798;2023-02-15T10:51:03;101949.72;;;6.13;83.76
2178;BME280;1095;50.992;6.798;2023-02-15T10:53:45;101961.09;;;6.24;83.55
2178;BME280;1095;50.992;6.798;2023-02-15T10:56:19;101950.09;;;6.48;83.43
2178;BME280;1095;50.992;6.798;2023-02-15T10:59:03;101949.75;;;6.40;82.88
2178;BME280;1095;50.992;6.798;2023-02-15T11:01:38;101936.84;;;6.11;82.47
2178;BME280;1095;50.992;6.798;2023-02-15T11:06:51;101931.75;;;6.37;82.68
2178;BME280;1095;50.992;6.798;2023-02-15T11:09:21;101937.75;;;6.51;82.10
2178;BME280;1095;50.992;6.798;2023-02-15T11:11:51;101931.34;;;6.70;82.00
2178;BME280;1095;50.992;6.798;2023-02-15T11:14:34;101929.41;;;6.86;81.39
2178;BME280;1095;50.992;6.798;2023-02-15T11:17:08;101925.28;;;6.96;81.18
2178;BME280;1095;50.992;6.798;2023-02-15T11:19:39;101918.22;;;7.11;80.60
2178;BME280;1095;50.992;6.798;2023-02-15T11:22:10;101924.88;;;7.15;80.31
2178;BME280;1095;50.992;6.798;2023-02-15T11:24:41;101913.44;;;7.17;79.72
2178;BME280;1095;50.992;6.798;2023-02-15T11:27:18;101918.03;;;7.26;79.45
2178;BME280;1095;50.992;6.798;2023-02-15T11:29:53;101914.38;;;7.29;79.14
2178;BME280;1095;50.992;6.798;2023-02-15T11:32:25;101908.66;;;7.49;78.73
2178;BME280;1095;50.992;6.798;2023-02-15T11:34:57;101909.47;;;7.75;78.24
2178;BME280;1095;50.992;6.798;2023-02-15T11:37:29;101897.47;;;7.73;78.18
2178;BME280;1095;50.992;6.798;2023-02-15T11:39:59;101900.59;;;7.78;77.63
2178;BME280;1095;50.992;6.798;2023-02-15T11:42:30;101895.94;;;8.07;77.33
2178;BME280;1095;50.992;6.798;2023-02-15T11:45:02;101885.84;;;8.02;76.78
2178;BME280;1095;50.992;6.798;2023-02-15T11:47:30;101880.34;;;8.18;76.64
2178;BME280;1095;50.992;6.798;2023-02-15T11:49:57;101887.47;;;8.16;76.49
2178;BME280;1095;50.992;6.798;2023-02-15T11:52:25;101889.50;;;8.36;76.52
2178;BME280;1095;50.992;6.798;2023-02-15T11:54:52;101892.41;;;8.31;76.00
2178;BME280;1095;50.992;6.798;2023-02-15T11:57:23;101872.13;;;8.48;75.88
2178;BME280;1095;50.992;6.798;2023-02-15T11:59:56;101870.91;;;8.41;75.67
2178;BME280;1095;50.992;6.798;2023-02-15T12:02:25;101859.03;;;8.37;75.36
2178;BME280;1095;50.992;6.798;2023-02-15T12:04:57;101862.22;;;8.64;75.67
2178;BME280;1095;50.992;6.798;2023-02-15T12:07:30;101848.00;;;8.68;75.30
2178;BME280;1095;50.992;6.798;2023-02-15T12:10:02;101847.63;;;8.96;75.30
2178;BME280;1095;50.992;6.798;2023-02-15T12:12:33;101843.34;;;8.95;74.79
2178;BME280;1095;50.992;6.798;2023-02-15T12:15:02;101843.56;;;9.04;74.60
2178;BME280;1095;50.992;6.798;2023-02-15T12:17:31;101833.34;;;9.01;74.30
2178;BME280;1095;50.992;6.798;2023-02-15T12:20:01;101840.97;;;9.15;74.46
2178;BME280;1095;50.992;6.798;2023-02-15T12:22:32;101821.16;;;9.23;74.23
2178;BME280;1095;50.992;6.798;2023-02-15T12:25:02;101823.19;;;9.31;74.01
2178;BME280;1095;50.992;6.798;2023-02-15T12:27:32;101819.50;;;9.34;73.83
2178;BME280;1095;50.992;6.798;2023-02-15T12:30:00;101821.03;;;9.47;73.40
2178;BME280;1095;50.992;6.798;2023-02-15T12:32:31;101820.78;;;9.61;73.12
2178;BME280;1095;50.992;6.798;2023-02-15T12:35:02;101813.88;;;9.72;72.30
2178;BME280;1095;50.992;6.798;2023-02-15T12:37:35;101810.78;;;9.67;72.29
2178;BME280;1095;50.992;6.798;2023-02-15T12:40:19;101811.25;;;9.83;72.40
2178;BME280;1095;50.992;6.798;2023-02-15T12:42:46;101804.59;;;9.79;72.53
2178;BME280;1095;50.992;6.798;2023-02-15T12:45:22;101800.22;;;9.68;72.12
2178;BME280;1095;50.992;6.798;2023-02-15T12:48:08;101805.78;;;9.86;72.31
2178;BME280;1095;50.992;6.798;2023-02-15T12:50:36;101796.06;;;9.77;72.25
2178;BME280;1095;50.992;6.798;2023-02-15T12:53:08;101791.06;;;9.74;72.01
2178;BME280;1095;50.992;6.798;2023-02-15T12:55:38;101784.63;;;9.78;71.88
2178;BME280;1095;50.992;6.798;2023-02-15T12:58:16;101778.34;;;10.12;71.83
2178;BME280;1095;50.992;6.798;2023-02-15T13:00:43;101775.97;;;10.09;71.86
2178;BME280;1095;50.992;6.798;2023-02-15T13:03:17;101777.63;;;10.10;70.89
2178;BME280;1095;50.992;6.798;2023-02-15T13:05:46;101767.19;;;10.10;70.34
2178;BME280;1095;50.992;6.798;2023-02-15T13:08:18;101763.78;;;10.30;70.26
2178;BME280;1095;50.992;6.798;2023-02-15T13:10:53;101743.81;;;10.29;69.89
2178;BME280;1095;50.992;6.798;2023-02-15T13:13:24;101747.19;;;10.41;70.37
2178;BME280;1095;50.992;6.798;2023-02-15T13:15:52;101754.59;;;10.57;70.26
2178;BME280;1095;50.992;6.798;2023-02-15T13:18:29;101759.56;;;10.60;70.59
2178;BME280;1095;50.992;6.798;2023-02-15T13:20:57;101752.09;;;10.76;70.28
2178;BME280;1095;50.992;6.798;2023-02-15T13:23:29;101745.19;;;10.75;69.72
2178;BME280;1095;50.992;6.798;2023-02-15T13:25:58;101746.41;;;10.71;69.67
2178;BME280;1095;50.992;6.798;2023-02-15T13:28:32;101739.00;;;10.76;69.49
2178;BME280;1095;50.992;6.798;2023-02-15T13:31:03;101735.69;;;10.74;69.64
2178;BME280;1095;50.992;6.798;2023-02-15T13:33:32;101750.13;;;10.99;69.84
2178;BME280;1095;50.992;6.798;2023-02-15T13:36:05;101744.84;;;10.89;69.73
2178;BME280;1095;50.992;6.798;2023-02-15T13:38:46;101739.59;;;10.89;69.70
2178;BME280;1095;50.992;6.798;2023-02-15T13:41:18;101735.50;;;10.96;69.76
2178;BME280;1095;50.992;6.798;2023-02-15T13:43:52;101725.53;;;10.90;69.77